Time;durP1;ratioP1;P1;durP2;ratioP2;P2;SDS_P1;SDS_P2;PMS_P1;PMS_P2;Temp;Humidity;BMP_temperature;BMP_pressure;BME280_temperature;BME280_humidity;BME280_pressure;Samples;Min_cycle;Max_cycle;Signal;HPM_P1;HPM_P2
2024/01/10 00:01:49;;;;;;;9.57;7.83;;;;;;;;;;4996437;28;20260;-85
2024/01/10 00:04:17;;;;;;;8.63;7.27;;;;;;;;;;4996435;28;20205;-84
2024/01/10 00:06:44;;;;;;;9.17;7.33;;;;;;;;;;4994543;28;20235;-84
2024/01/10 00:09:11;;;;;;;10.20;7.17;;;;;;;;;;4994556;28;20315;-84
2024/01/10 00:11:39;;;;;;;11.57;7.60;;;;;;;;;;4993251;28;20640;-84
2024/01/10 00:14:07;;;;;;;15.33;8.80;;;;;;;;;;4994282;28;20215;-84
2024/01/10 00:16:34;;;;;;;11.80;6.80;;;;;;;;;;4992831;28;20765;-83
2024/01/10 00:19:01;;;;;;;8.03;6.57;;;;;;;;;;4993737;28;20260;-83
2024/01/10 00:21:29;;;;;;;10.27;8.33;;;;;;;;;;4993102;28;20247;-83
2024/01/10 00:23:56;;;;;;;12.90;9.13;;;;;;;;;;4993545;28;20208;-83
2024/01/10 00:26:23;;;;;;;15.57;7.60;;;;;;;;;;4993079;28;20714;-85
2024/01/10 00:28:50;;;;;;;13.97;8.77;;;;;;;;;;4993428;28;20331;-83
2024/01/10 00:31:19;;;;;;;9.77;7.90;;;;;;;;;;4993295;28;20243;-83
2024/01/10 00:33:46;;;;;;;7.60;6.67;;;;;;;;;;4993537;28;20211;-83
2024/01/10 00:36:13;;;;;;;10.63;7.57;;;;;;;;;;4992342;28;20235;-82
2024/01/10 00:38:40;;;;;;;12.87;8.57;;;;;;;;;;4992772;28;20343;-84
2024/01/10 00:41:07;;;;;;;9.87;7.67;;;;;;;;;;4992577;28;20247;-83
2024/01/10 00:43:34;;;;;;;16.23;8.50;;;;;;;;;;4993465;28;20299;-83
2024/01/10 00:46:01;;;;;;;10.53;8.13;;;;;;;;;;4992504;28;20239;-84
2024/01/10 00:48:29;;;;;;;10.63;9.03;;;;;;;;;;4992903;28;20204;-84
2024/01/10 00:50:56;;;;;;;10.43;7.30;;;;;;;;;;4993456;28;20721;-84
2024/01/10 00:53:23;;;;;;;12.00;8.53;;;;;;;;;;4996922;28;20219;-83
2024/01/10 00:55:50;;;;;;;16.33;7.93;;;;;;;;;;4996697;28;20235;-83
2024/01/10 00:58:18;;;;;;;15.07;7.80;;;;;;;;;;4996693;28;20313;-83
2024/01/10 01:00:45;;;;;;;14.73;9.80;;;;;;;;;;4996745;28;20250;-83
2024/01/10 01:03:12;;;;;;;20.70;11.37;;;;;;;;;;4997279;28;20208;-83
2024/01/10 01:05:41;;;;;;;12.97;8.23;;;;;;;;;;4996438;28;20499;-83
2024/01/10 01:08:08;;;;;;;7.47;6.73;;;;;;;;;;4997173;28;20196;-84
2024/01/10 01:10:35;;;;;;;11.63;8.47;;;;;;;;;;4996241;28;20234;-84
2024/01/10 01:13:02;;;;;;;12.27;8.13;;;;;;;;;;4996919;28;20231;-84
2024/01/10 01:15:30;;;;;;;13.53;8.60;;;;;;;;;;4996110;28;20344;-84
2024/01/10 01:17:57;;;;;;;9.93;8.30;;;;;;;;;;4996370;28;20282;-83
2024/01/10 01:20:24;;;;;;;11.57;8.97;;;;;;;;;;4995570;28;20240;-84
2024/01/10 01:22:52;;;;;;;19.10;9.10;;;;;;;;;;4995867;28;20217;-83
2024/01/10 01:25:19;;;;;;;15.57;9.70;;;;;;;;;;4995572;28;20223;-84
2024/01/10 01:27:46;;;;;;;14.43;9.17;;;;;;;;;;4996104;28;20208;-84
2024/01/10 01:30:14;;;;;;;12.80;9.37;;;;;;;;;;4995881;28;20227;-84
2024/01/10 01:32:41;;;;;;;11.67;8.87;;;;;;;;;;4995852;28;20204;-84
2024/01/10 01:35:07;;;;;;;15.43;9.77;;;;;;;;;;4995467;28;20211;-83
2024/01/10 01:37:34;;;;;;;14.43;10.30;;;;;;;;;;4995665;28;20263;-84
2024/01/10 01:40:02;;;;;;;21.30;9.80;;;;;;;;;;4995870;28;20228;-84
2024/01/10 01:42:29;;;;;;;19.53;10.63;;;;;;;;;;4995445;28;20220;-83
2024/01/10 01:44:56;;;;;;;12.77;9.03;;;;;;;;;;4995810;28;20737;-84
2024/01/10 01:47:23;;;;;;;16.83;11.17;;;;;;;;;;4995127;28;20231;-84
2024/01/10 01:49:50;;;;;;;21.50;10.40;;;;;;;;;;4995334;28;20252;-83
2024/01/10 01:52:18;;;;;;;14.70;8.73;;;;;;;;;;4995241;28;20262;-84
2024/01/10 01:54:45;;;;;;;17.50;10.33;;;;;;;;;;4995484;28;20255;-84
2024/01/10 01:57:13;;;;;;;15.47;8.20;;;;;;;;;;4994725;28;20240;-84
2024/01/10 01:59:40;;;;;;;15.23;9.33;;;;;;;;;;4995368;28;20235;-84
2024/01/10 02:02:08;;;;;;;17.57;9.67;;;;;;;;;;4994096;28;20263;-84
2024/01/10 02:04:35;;;;;;;13.13;9.20;;;;;;;;;;4995190;28;20250;-83
2024/01/10 02:07:02;;;;;;;14.57;9.67;;;;;;;;;;4993088;28;20227;-84
2024/01/10 02:09:30;;;;;;;15.40;10.33;;;;;;;;;;4994491;28;20625;-84
2024/01/10 02:11:57;;;;;;;13.30;9.57;;;;;;;;;;4994178;28;20232;-84
2024/01/10 02:14:25;;;;;;;17.20;10.20;;;;;;;;;;4995320;28;20189;-84
2024/01/10 02:16:53;;;;;;;13.60;9.53;;;;;;;;;;4994666;28;20239;-85
2024/01/10 02:19:21;;;;;;;16.73;9.63;;;;;;;;;;4995243;28;20228;-84
2024/01/10 02:21:48;;;;;;;20.13;9.87;;;;;;;;;;4994954;28;20263;-84
2024/01/10 02:24:15;;;;;;;13.50;9.90;;;;;;;;;;5001214;28;20572;-81
2024/01/10 02:26:44;;;;;;;16.20;8.67;;;;;;;;;;4994469;28;20299;-83
2024/01/10 02:29:11;;;;;;;14.40;8.77;;;;;;;;;;4995059;28;20227;-83
2024/01/10 02:31:38;;;;;;;16.87;10.73;;;;;;;;;;4974997;28;20364;-83
2024/01/10 02:34:05;;;;;;;12.40;8.30;;;;;;;;;;4994669;28;20241;-83
2024/01/10 02:36:32;;;;;;;18.93;10.87;;;;;;;;;;4994278;28;20323;-83
2024/01/10 02:38:59;;;;;;;16.30;9.33;;;;;;;;;;4994715;28;20266;-82
2024/01/10 02:41:27;;;;;;;14.70;9.53;;;;;;;;;;4994312;28;20240;-83
2024/01/10 02:43:58;;;;;;;15.93;9.77;;;;;;;;;;4994729;28;20219;-83
2024/01/10 02:46:27;;;;;;;19.07;11.13;;;;;;;;;;4993893;28;20326;-83
2024/01/10 02:48:54;;;;;;;17.40;9.57;;;;;;;;;;4994410;28;20580;-83
2024/01/10 02:51:21;;;;;;;13.80;7.93;;;;;;;;;;4994165;28;20233;-83
2024/01/10 02:53:48;;;;;;;16.43;9.53;;;;;;;;;;4994545;28;20204;-83
2024/01/10 02:56:15;;;;;;;16.73;10.63;;;;;;;;;;4993724;28;20231;-83
2024/01/10 02:58:42;;;;;;;16.93;9.63;;;;;;;;;;4994454;28;20228;-85
2024/01/10 03:01:10;;;;;;;14.27;8.97;;;;;;;;;;4994095;28;20235;-84
2024/01/10 03:03:37;;;;;;;17.87;10.73;;;;;;;;;;4994403;28;20259;-84
2024/01/10 03:06:05;;;;;;;18.37;10.50;;;;;;;;;;4974373;28;20258;-84
2024/01/10 03:08:32;;;;;;;15.50;10.40;;;;;;;;;;4989687;28;20855;-84
2024/01/10 03:10:59;;;;;;;15.47;9.67;;;;;;;;;;4993725;28;20235;-84
2024/01/10 03:13:26;;;;;;;12.70;9.50;;;;;;;;;;4996257;28;20573;-84
2024/01/10 03:15:53;;;;;;;12.80;9.07;;;;;;;;;;4993718;28;20290;-84
2024/01/10 03:18:21;;;;;;;21.37;10.93;;;;;;;;;;4994337;28;20216;-84
2024/01/10 03:20:48;;;;;;;19.23;11.10;;;;;;;;;;4993385;28;20239;-84
2024/01/10 03:23:15;;;;;;;16.23;10.40;;;;;;;;;;4994076;28;20204;-85
2024/01/10 03:25:42;;;;;;;19.30;11.07;;;;;;;;;;4993361;28;20232;-84
2024/01/10 03:28:09;;;;;;;16.60;10.60;;;;;;;;;;4993854;28;20211;-83
2024/01/10 03:30:36;;;;;;;18.07;10.53;;;;;;;;;;4993327;28;20243;-84
2024/01/10 03:33:03;;;;;;;22.37;10.83;;;;;;;;;;4994008;28;20208;-84
2024/01/10 03:35:31;;;;;;;17.07;10.13;;;;;;;;;;4992901;28;20706;-84
2024/01/10 03:37:58;;;;;;;17.73;10.90;;;;;;;;;;4993894;28;20228;-84
2024/01/10 03:40:25;;;;;;;19.77;11.60;;;;;;;;;;4992845;28;20691;-84
2024/01/10 03:42:52;;;;;;;17.10;11.53;;;;;;;;;;4993828;28;20192;-84
2024/01/10 03:45:22;;;;;;;17.30;10.67;;;;;;;;;;4993003;28;20726;-84
2024/01/10 03:47:51;;;;;;;28.27;12.33;;;;;;;;;;4993264;28;20687;-84
2024/01/10 03:50:18;;;;;;;16.47;10.17;;;;;;;;;;4993252;28;20232;-84
2024/01/10 03:52:47;;;;;;;20.90;9.83;;;;;;;;;;4993740;28;20644;-84
2024/01/10 03:55:15;;;;;;;17.97;10.73;;;;;;;;;;4992858;28;20208;-83
2024/01/10 03:57:42;;;;;;;19.13;10.50;;;;;;;;;;4993571;28;20238;-84
2024/01/10 04:00:10;;;;;;;15.37;9.07;;;;;;;;;;4993003;28;20812;-84
2024/01/10 04:02:38;;;;;;;18.63;10.30;;;;;;;;;;4993568;28;20216;-84
2024/01/10 04:05:07;;;;;;;18.43;10.33;;;;;;;;;;4992584;28;20259;-84
2024/01/10 04:07:34;;;;;;;17.03;9.77;;;;;;;;;;4993580;28;20282;-84
2024/01/10 04:10:03;;;;;;;14.43;10.63;;;;;;;;;;4992991;28;20232;-84
2024/01/10 04:12:30;;;;;;;15.67;10.90;;;;;;;;;;5012540;28;20227;-84
2024/01/10 04:14:57;;;;;;;19.03;10.67;;;;;;;;;;5012861;28;20679;-84
2024/01/10 04:17:24;;;;;;;23.43;11.57;;;;;;;;;;5012284;28;20235;-84
2024/01/10 04:19:51;;;;;;;22.43;11.10;;;;;;;;;;5012320;28;20614;-84
2024/01/10 04:22:18;;;;;;;19.43;12.33;;;;;;;;;;5011987;28;20893;-84
2024/01/10 04:24:45;;;;;;;17.90;10.07;;;;;;;;;;5012768;28;20218;-84
2024/01/10 04:27:14;;;;;;;17.93;10.47;;;;;;;;;;5011080;28;20240;-84
2024/01/10 04:29:41;;;;;;;19.57;11.67;;;;;;;;;;5012375;28;20289;-83
2024/01/10 04:32:08;;;;;;;18.13;9.23;;;;;;;;;;5011857;28;20314;-83
2024/01/10 04:34:35;;;;;;;14.43;10.33;;;;;;;;;;5012445;28;20204;-84
2024/01/10 04:37:02;;;;;;;17.73;9.53;;;;;;;;;;4997497;28;20729;-84
2024/01/10 04:39:29;;;;;;;15.43;10.03;;;;;;;;;;4993315;28;20236;-83
2024/01/10 04:41:56;;;;;;;21.10;10.60;;;;;;;;;;5007924;28;20342;-83
2024/01/10 04:44:25;;;;;;;17.73;11.03;;;;;;;;;;5012274;28;20204;-83
2024/01/10 04:46:52;;;;;;;14.73;9.13;;;;;;;;;;5011762;28;20262;-84
2024/01/10 04:49:19;;;;;;;22.07;9.80;;;;;;;;;;5012227;28;20227;-83
2024/01/10 04:51:46;;;;;;;18.70;10.97;;;;;;;;;;5011581;28;20318;-83
2024/01/10 04:54:13;;;;;;;13.83;9.60;;;;;;;;;;5012027;28;20704;-83
2024/01/10 04:56:40;;;;;;;17.63;10.77;;;;;;;;;;5011577;28;20227;-83
2024/01/10 04:59:07;;;;;;;14.97;9.30;;;;;;;;;;5011806;28;20230;-84
2024/01/10 05:01:36;;;;;;;17.87;10.53;;;;;;;;;;4999199;28;20290;-84
2024/01/10 05:04:03;;;;;;;17.17;9.13;;;;;;;;;;4992215;28;20212;-84
2024/01/10 05:06:31;;;;;;;15.90;9.77;;;;;;;;;;4991783;28;20236;-84
2024/01/10 05:08:58;;;;;;;17.60;10.97;;;;;;;;;;4992835;28;20323;-84
2024/01/10 05:11:25;;;;;;;15.53;10.33;;;;;;;;;;4990863;28;20239;-84
2024/01/10 05:13:52;;;;;;;16.20;10.27;;;;;;;;;;4993018;28;20215;-84
2024/01/10 05:16:19;;;;;;;17.70;10.50;;;;;;;;;;4991568;28;20239;-83
2024/01/10 05:18:48;;;;;;;18.07;12.13;;;;;;;;;;4991805;28;20232;-83
2024/01/10 05:21:15;;;;;;;21.50;11.03;;;;;;;;;;4991790;28;20837;-83
2024/01/10 05:23:42;;;;;;;26.27;12.37;;;;;;;;;;4992597;28;20215;-83
2024/01/10 05:26:09;;;;;;;17.70;10.40;;;;;;;;;;4991401;28;20244;-81
2024/01/10 05:28:36;;;;;;;25.77;9.73;;;;;;;;;;4992200;28;20590;-81
2024/01/10 05:31:03;;;;;;;24.03;11.57;;;;;;;;;;4994756;28;20240;-81
2024/01/10 05:33:30;;;;;;;17.50;9.70;;;;;;;;;;4992271;28;20254;-81
2024/01/10 05:35:59;;;;;;;13.37;10.63;;;;;;;;;;4991348;28;20235;-81
2024/01/10 05:38:26;;;;;;;21.27;11.73;;;;;;;;;;4994955;28;20286;-81
2024/01/10 05:40:53;;;;;;;17.37;10.03;;;;;;;;;;4995213;28;20244;-83
2024/01/10 05:43:20;;;;;;;19.67;10.73;;;;;;;;;;4995845;28;20212;-83
2024/01/10 05:45:47;;;;;;;20.13;11.43;;;;;;;;;;4995228;28;20236;-83
2024/01/10 05:48:14;;;;;;;17.93;10.50;;;;;;;;;;4994769;28;20307;-83
2024/01/10 05:50:41;;;;;;;19.43;10.93;;;;;;;;;;4995037;28;20290;-80
2024/01/10 05:53:10;;;;;;;15.93;11.10;;;;;;;;;;4995435;28;20659;-83
2024/01/10 05:55:37;;;;;;;24.00;11.87;;;;;;;;;;4994631;28;20663;-79
2024/01/10 05:58:04;;;;;;;18.53;11.10;;;;;;;;;;4989129;28;20315;-79
2024/01/10 06:00:32;;;;;;;18.97;10.47;;;;;;;;;;4994462;28;20239;-79
2024/01/10 06:02:59;;;;;;;19.10;10.87;;;;;;;;;;4995184;28;20208;-79
2024/01/10 06:05:26;;;;;;;19.33;11.90;;;;;;;;;;4994772;28;20583;-80
2024/01/10 06:07:53;;;;;;;19.40;12.43;;;;;;;;;;4994885;28;20262;-79
2024/01/10 06:10:21;;;;;;;16.07;12.33;;;;;;;;;;4994043;28;20224;-79
2024/01/10 06:12:48;;;;;;;16.37;10.23;;;;;;;;;;4994497;28;20215;-77
2024/01/10 06:15:15;;;;;;;20.60;12.13;;;;;;;;;;4994103;28;20219;-77
2024/01/10 06:17:43;;;;;;;26.73;10.23;;;;;;;;;;4994044;28;20211;-78
2024/01/10 06:20:10;;;;;;;16.13;9.77;;;;;;;;;;4994060;28;20315;-78
2024/01/10 06:22:37;;;;;;;21.00;10.93;;;;;;;;;;4991337;28;20682;-78
2024/01/10 06:25:05;;;;;;;22.83;10.53;;;;;;;;;;4982510;28;20207;-78
2024/01/10 06:27:33;;;;;;;22.07;11.20;;;;;;;;;;4986592;28;20286;-78
2024/01/10 06:30:00;;;;;;;24.73;11.00;;;;;;;;;;4988918;28;20220;-78
2024/01/10 06:32:28;;;;;;;22.03;10.07;;;;;;;;;;5012505;28;20227;-78
2024/01/10 06:34:55;;;;;;;19.97;10.73;;;;;;;;;;5004841;28;20207;-78
2024/01/10 06:37:22;;;;;;;19.13;10.37;;;;;;;;;;4985550;28;20741;-78
2024/01/10 06:39:49;;;;;;;20.37;11.83;;;;;;;;;;4981847;28;20239;-78
2024/01/10 06:42:16;;;;;;;19.00;10.23;;;;;;;;;;4982076;28;20232;-78
2024/01/10 06:44:45;;;;;;;26.33;10.60;;;;;;;;;;4982657;28;20200;-78
2024/01/10 06:47:14;;;;;;;14.40;8.60;;;;;;;;;;4981569;28;20612;-78
2024/01/10 06:49:41;;;;;;;13.03;9.67;;;;;;;;;;4984134;28;20220;-78
2024/01/10 06:52:08;;;;;;;17.70;11.10;;;;;;;;;;4985417;28;20231;-78
2024/01/10 06:54:35;;;;;;;19.47;10.50;;;;;;;;;;4988443;28;20660;-78
2024/01/10 06:57:02;;;;;;;25.63;9.67;;;;;;;;;;4969307;28;20750;-78
2024/01/10 06:59:29;;;;;;;21.37;11.00;;;;;;;;;;4974189;28;20639;-79
2024/01/10 07:02:00;;;;;;;16.03;10.73;;;;;;;;;;4974183;28;20233;-78
2024/01/10 07:04:27;;;;;;;12.83;9.10;;;;;;;;;;4974644;28;20201;-77
2024/01/10 07:06:55;;;;;;;17.90;10.87;;;;;;;;;;4977236;28;20789;-77
2024/01/10 07:09:21;;;;;;;15.10;10.33;;;;;;;;;;4997897;28;20228;-78
2024/01/10 07:11:48;;;;;;;21.63;10.10;;;;;;;;;;4986212;28;20224;-77
2024/01/10 07:14:15;;;;;;;21.43;11.47;;;;;;;;;;4993648;28;20212;-77
2024/01/10 07:16:45;;;;;;;15.60;10.57;;;;;;;;;;4992788;28;20240;-77
2024/01/10 07:19:14;;;;;;;17.97;9.60;;;;;;;;;;4993185;28;20323;-77
2024/01/10 07:21:41;;;;;;;21.23;10.73;;;;;;;;;;4992828;28;20240;-78
2024/01/10 07:24:09;;;;;;;20.17;11.33;;;;;;;;;;4993326;28;20675;-77
2024/01/10 07:26:37;;;;;;;14.13;9.73;;;;;;;;;;4992792;28;20239;-78
2024/01/10 07:29:08;;;;;;;13.43;10.30;;;;;;;;;;4993393;28;20224;-78
2024/01/10 07:31:35;;;;;;;20.77;9.07;;;;;;;;;;5018682;28;20747;-77
2024/01/10 07:34:04;;;;;;;21.90;10.80;;;;;;;;;;5032523;28;20585;-78
2024/01/10 07:36:34;;;;;;;16.53;10.17;;;;;;;;;;5019615;28;20293;-78
2024/01/10 07:39:01;;;;;;;18.77;10.00;;;;;;;;;;5012505;28;20305;-78
2024/01/10 07:41:28;;;;;;;22.27;12.27;;;;;;;;;;5012080;28;20714;-77
2024/01/10 07:43:55;;;;;;;17.50;10.00;;;;;;;;;;5012749;28;20257;-78
2024/01/10 07:46:22;;;;;;;15.87;9.73;;;;;;;;;;5011994;28;20801;-78
2024/01/10 07:48:50;;;;;;;15.63;10.57;;;;;;;;;;5012328;28;20200;-79
2024/01/10 07:51:17;;;;;;;22.33;11.77;;;;;;;;;;5012171;28;20682;-78
2024/01/10 07:53:45;;;;;;;22.60;12.13;;;;;;;;;;5012761;28;20313;-78
2024/01/10 07:56:13;;;;;;;17.63;10.27;;;;;;;;;;5011969;28;20235;-78
2024/01/10 07:58:40;;;;;;;14.40;9.67;;;;;;;;;;5012416;28;20257;-81
2024/01/10 08:01:10;;;;;;;16.00;8.77;;;;;;;;;;5005315;28;20237;-79
2024/01/10 08:03:37;;;;;;;11.80;8.83;;;;;;;;;;5012952;28;20211;-79
2024/01/10 08:06:05;;;;;;;16.90;9.03;;;;;;;;;;5011872;28;20231;-79
2024/01/10 08:08:32;;;;;;;21.67;10.90;;;;;;;;;;5012505;28;20573;-79
2024/01/10 08:11:01;;;;;;;15.07;11.93;;;;;;;;;;5011748;28;20293;-79
2024/01/10 08:13:28;;;;;;;20.17;11.93;;;;;;;;;;5012246;28;20592;-79
2024/01/10 08:15:55;;;;;;;14.20;9.83;;;;;;;;;;5011635;28;20243;-79
2024/01/10 08:18:22;;;;;;;23.30;12.23;;;;;;;;;;5011923;28;20199;-79
2024/01/10 08:20:49;;;;;;;22.73;12.83;;;;;;;;;;5011636;28;20239;-79
2024/01/10 08:23:16;;;;;;;20.97;10.43;;;;;;;;;;5012288;28;20215;-79
2024/01/10 08:25:44;;;;;;;15.90;11.30;;;;;;;;;;5011435;28;20223;-79
2024/01/10 08:28:13;;;;;;;18.13;10.50;;;;;;;;;;5012210;28;20294;-80
2024/01/10 08:30:40;;;;;;;16.37;9.57;;;;;;;;;;5011737;28;20304;-80
2024/01/10 08:33:07;;;;;;;15.23;10.73;;;;;;;;;;5012001;28;20297;-79
2024/01/10 08:35:34;;;;;;;18.50;9.17;;;;;;;;;;5011565;28;20241;-79
2024/01/10 08:38:04;;;;;;;13.30;9.20;;;;;;;;;;5016188;28;20207;-79
2024/01/10 08:40:31;;;;;;;22.47;11.53;;;;;;;;;;5011822;28;20263;-80
2024/01/10 08:42:58;;;;;;;16.37;11.43;;;;;;;;;;5012195;28;20216;-79
2024/01/10 08:45:26;;;;;;;19.40;11.20;;;;;;;;;;5011427;28;20266;-80
2024/01/10 08:47:55;;;;;;;13.70;10.83;;;;;;;;;;5011733;28;20215;-80
2024/01/10 08:50:22;;;;;;;24.43;12.67;;;;;;;;;;5009084;28;20274;-79
2024/01/10 08:52:49;;;;;;;23.83;11.90;;;;;;;;;;4992485;28;20235;-79
2024/01/10 08:55:16;;;;;;;21.43;11.23;;;;;;;;;;4991653;28;20733;-80
2024/01/10 08:57:43;;;;;;;13.97;10.10;;;;;;;;;;4991669;28;20219;-79
2024/01/10 09:00:11;;;;;;;15.33;10.93;;;;;;;;;;4985711;28;20239;-80
2024/01/10 09:02:40;;;;;;;15.80;10.40;;;;;;;;;;4990924;28;20211;-80
2024/01/10 09:05:08;;;;;;;20.13;10.80;;;;;;;;;;4990572;28;20620;-79
2024/01/10 09:07:35;;;;;;;19.63;10.27;;;;;;;;;;4990855;28;20202;-77
2024/01/10 09:10:05;;;;;;;20.93;11.30;;;;;;;;;;4990952;28;20233;-77
2024/01/10 09:12:32;;;;;;;18.03;10.30;;;;;;;;;;4990973;28;20224;-76
2024/01/10 09:15:00;;;;;;;11.27;9.10;;;;;;;;;;4994448;28;20215;-79
2024/01/10 09:17:27;;;;;;;23.20;12.37;;;;;;;;;;4993269;28;20730;-77
2024/01/10 09:19:56;;;;;;;12.93;9.60;;;;;;;;;;4994228;28;21059;-79
2024/01/10 09:22:23;;;;;;;16.07;9.90;;;;;;;;;;4994668;28;20324;-79
2024/01/10 09:24:50;;;;;;;14.70;9.60;;;;;;;;;;4994887;28;20238;-79
2024/01/10 09:27:17;;;;;;;18.13;9.07;;;;;;;;;;4993821;28;20238;-78
2024/01/10 09:29:44;;;;;;;17.33;9.33;;;;;;;;;;4993820;28;20754;-77
2024/01/10 09:32:12;;;;;;;16.47;10.83;;;;;;;;;;4994189;28;20231;-78
2024/01/10 09:34:39;;;;;;;18.03;10.27;;;;;;;;;;4994483;28;20210;-78
2024/01/10 09:37:07;;;;;;;19.13;9.77;;;;;;;;;;4993147;28;20259;-78
2024/01/10 09:39:34;;;;;;;17.63;10.50;;;;;;;;;;4993913;28;20705;-78
2024/01/10 09:42:02;;;;;;;17.33;10.80;;;;;;;;;;4993364;28;20243;-80
2024/01/10 09:44:30;;;;;;;22.07;9.93;;;;;;;;;;4994383;28;20213;-79
2024/01/10 09:46:57;;;;;;;16.83;9.63;;;;;;;;;;4993482;28;20265;-79
2024/01/10 09:49:25;;;;;;;19.57;10.63;;;;;;;;;;4993911;28;20474;-77
2024/01/10 09:51:55;;;;;;;16.33;9.07;;;;;;;;;;4994013;28;20261;-77
2024/01/10 09:54:26;;;;;;;19.63;10.17;;;;;;;;;;4993739;28;20210;-78
2024/01/10 09:56:54;;;;;;;16.77;10.00;;;;;;;;;;4993491;28;20329;-78
2024/01/10 09:59:21;;;;;;;19.63;10.57;;;;;;;;;;4994072;28;20260;-79
2024/01/10 10:01:48;;;;;;;11.87;8.20;;;;;;;;;;4993871;28;20235;-81
2024/01/10 10:04:17;;;;;;;15.37;9.10;;;;;;;;;;4994257;28;20206;-80
2024/01/10 10:06:44;;;;;;;15.80;9.73;;;;;;;;;;4993157;28;20244;-79
2024/01/10 10:09:12;;;;;;;15.67;10.40;;;;;;;;;;4994107;28;20266;-79
2024/01/10 10:11:40;;;;;;;12.60;9.47;;;;;;;;;;4993890;28;20236;-81
2024/01/10 10:14:16;;;;;;;16.90;10.93;;;;;;;;;;4994217;28;20264;-79
2024/01/10 10:16:44;;;;;;;13.63;8.17;;;;;;;;;;4993005;28;20279;-80
2024/01/10 10:19:12;;;;;;;12.17;9.00;;;;;;;;;;4994231;28;20227;-80
2024/01/10 10:21:39;;;;;;;13.33;8.83;;;;;;;;;;4993814;28;20273;-80
2024/01/10 10:24:07;;;;;;;13.07;9.10;;;;;;;;;;4992821;28;20233;-79
2024/01/10 10:26:34;;;;;;;19.27;11.03;;;;;;;;;;4993699;28;20265;-81
2024/01/10 10:29:03;;;;;;;20.40;9.07;;;;;;;;;;4994044;28;20238;-80
2024/01/10 10:31:32;;;;;;;17.83;9.00;;;;;;;;;;4993425;28;20239;-80
2024/01/10 10:34:00;;;;;;;16.27;9.70;;;;;;;;;;4993695;28;20208;-80
2024/01/10 10:36:27;;;;;;;19.77;10.37;;;;;;;;;;4993409;28;20237;-80
2024/01/10 10:38:54;;;;;;;9.73;7.30;;;;;;;;;;4993320;28;20254;-80
2024/01/10 10:41:22;;;;;;;13.93;9.63;;;;;;;;;;4993532;28;20243;-80
2024/01/10 10:43:51;;;;;;;14.70;8.40;;;;;;;;;;4993463;28;20212;-80
2024/01/10 10:46:22;;;;;;;13.33;9.73;;;;;;;;;;4993029;28;20331;-80
2024/01/10 10:48:49;;;;;;;16.80;8.80;;;;;;;;;;4992886;28;20639;-82
2024/01/10 10:51:19;;;;;;;18.10;8.83;;;;;;;;;;4993060;28;20262;-80
2024/01/10 10:53:47;;;;;;;14.57;9.70;;;;;;;;;;4993225;28;20203;-80
2024/01/10 10:56:14;;;;;;;12.77;8.50;;;;;;;;;;4992663;28;20249;-80
2024/01/10 10:58:42;;;;;;;12.50;7.03;;;;;;;;;;4993538;28;20215;-80
2024/01/10 11:01:09;;;;;;;18.23;9.43;;;;;;;;;;4993019;28;20726;-81
2024/01/10 11:03:39;;;;;;;14.50;9.53;;;;;;;;;;4993926;28;20690;-80
2024/01/10 11:06:07;;;;;;;7.07;6.33;;;;;;;;;;4993110;28;20236;-80
2024/01/10 11:08:37;;;;;;;14.37;8.60;;;;;;;;;;4993317;28;20237;-81
2024/01/10 11:11:05;;;;;;;18.60;10.67;;;;;;;;;;4992697;28;20314;-80
2024/01/10 11:13:39;;;;;;;17.23;8.17;;;;;;;;;;4992826;28;20211;-80
2024/01/10 11:16:16;;;;;;;12.53;7.97;;;;;;;;;;4992511;28;20241;-78
2024/01/10 11:18:54;;;;;;;11.33;7.63;;;;;;;;;;4992850;28;20200;-80
2024/01/10 11:21:27;;;;;;;11.60;6.80;;;;;;;;;;4978551;28;20243;-80
2024/01/10 11:23:56;;;;;;;16.00;8.47;;;;;;;;;;4973507;28;20212;-80
2024/01/10 11:26:23;;;;;;;15.70;9.60;;;;;;;;;;4972764;28;20324;-81
2024/01/10 11:28:50;;;;;;;14.97;8.73;;;;;;;;;;4973064;28;20193;-81
2024/01/10 11:31:28;;;;;;;17.03;9.53;;;;;;;;;;4972735;28;20247;-81
2024/01/10 11:33:57;;;;;;;12.33;7.93;;;;;;;;;;4973344;28;20213;-81
2024/01/10 11:36:25;;;;;;;17.43;9.57;;;;;;;;;;4972741;28;20236;-80
2024/01/10 11:38:56;;;;;;;15.93;8.60;;;;;;;;;;4972737;28;20680;-80
2024/01/10 11:41:24;;;;;;;12.53;8.07;;;;;;;;;;4972466;28;20291;-80
2024/01/10 11:44:10;;;;;;;14.27;8.33;;;;;;;;;;4977058;28;20220;-79
2024/01/10 11:46:37;;;;;;;9.47;7.37;;;;;;;;;;4972686;28;20272;-80
2024/01/10 11:49:08;;;;;;;14.60;9.20;;;;;;;;;;4973570;28;20233;-82
2024/01/10 11:51:37;;;;;;;10.73;7.53;;;;;;;;;;4972277;28;20665;-79
2024/01/10 11:54:04;;;;;;;17.07;8.90;;;;;;;;;;4991218;28;20258;-79
2024/01/10 11:56:39;;;;;;;11.63;7.13;;;;;;;;;;4991140;28;20235;-80
2024/01/10 11:59:10;;;;;;;14.37;7.50;;;;;;;;;;4992051;28;20234;-78
2024/01/10 12:01:37;;;;;;;10.10;6.93;;;;;;;;;;4991935;28;20246;-79
2024/01/10 12:04:06;;;;;;;14.90;8.27;;;;;;;;;;4991688;28;20216;-78
2024/01/10 12:06:33;;;;;;;13.53;8.87;;;;;;;;;;4990885;28;20291;-77
2024/01/10 12:09:04;;;;;;;10.60;7.40;;;;;;;;;;4991304;28;20684;-79
2024/01/10 12:11:31;;;;;;;10.97;7.03;;;;;;;;;;4991072;28;20242;-79
2024/01/10 12:13:59;;;;;;;14.13;7.57;;;;;;;;;;4991027;28;20217;-78
2024/01/10 12:16:26;;;;;;;10.70;7.57;;;;;;;;;;4991446;28;20247;-79
2024/01/10 12:18:53;;;;;;;14.27;7.77;;;;;;;;;;4991041;28;20208;-79
2024/01/10 12:21:22;;;;;;;14.43;7.10;;;;;;;;;;4990609;28;20263;-79
2024/01/10 12:23:49;;;;;;;8.87;7.13;;;;;;;;;;4989331;28;20568;-79
2024/01/10 12:26:16;;;;;;;18.47;9.07;;;;;;;;;;4990955;28;20245;-79
2024/01/10 12:28:54;;;;;;;11.57;8.57;;;;;;;;;;4991468;28;20209;-79
2024/01/10 12:31:22;;;;;;;14.43;8.43;;;;;;;;;;4991302;28;20679;-78
2024/01/10 12:33:49;;;;;;;14.83;8.33;;;;;;;;;;4990848;28;20219;-78
2024/01/10 12:36:18;;;;;;;11.17;7.47;;;;;;;;;;4990666;28;20731;-78
2024/01/10 12:38:46;;;;;;;13.90;7.50;;;;;;;;;;4990677;28;20685;-79
2024/01/10 12:41:14;;;;;;;11.87;7.30;;;;;;;;;;4989311;28;20242;-79
2024/01/10 12:43:41;;;;;;;12.50;7.77;;;;;;;;;;4988558;28;20201;-82
2024/01/10 12:46:10;;;;;;;16.43;7.80;;;;;;;;;;4988278;28;20258;-81
2024/01/10 12:48:37;;;;;;;14.53;8.57;;;;;;;;;;4989199;28;20217;-81
2024/01/10 12:51:06;;;;;;;10.57;8.40;;;;;;;;;;4988869;28;20325;-80
2024/01/10 12:53:34;;;;;;;11.13;7.40;;;;;;;;;;4990607;28;20305;-80
2024/01/10 12:56:02;;;;;;;13.90;6.17;;;;;;;;;;4985226;28;20246;-80
2024/01/10 12:58:30;;;;;;;9.57;6.50;;;;;;;;;;4991169;28;20195;-81
2024/01/10 13:00:57;;;;;;;10.90;7.53;;;;;;;;;;4991227;28;20272;-80
2024/01/10 13:03:24;;;;;;;14.67;8.23;;;;;;;;;;4991313;28;20215;-80
2024/01/10 13:05:51;;;;;;;11.57;7.10;;;;;;;;;;4991141;28;20242;-80
2024/01/10 13:08:18;;;;;;;17.33;8.63;;;;;;;;;;4991449;28;20209;-80
2024/01/10 13:10:47;;;;;;;9.30;6.53;;;;;;;;;;4990634;28;20242;-80
2024/01/10 13:13:17;;;;;;;12.33;8.13;;;;;;;;;;4990894;28;20215;-80
2024/01/10 13:15:45;;;;;;;11.90;7.73;;;;;;;;;;4990965;28;20240;-80
2024/01/10 13:18:13;;;;;;;15.87;9.43;;;;;;;;;;4990997;28;20214;-80
2024/01/10 13:20:40;;;;;;;13.80;8.17;;;;;;;;;;4997163;28;20326;-80
2024/01/10 13:23:07;;;;;;;11.23;8.20;;;;;;;;;;4982439;28;20211;-80
2024/01/10 13:25:34;;;;;;;10.30;7.57;;;;;;;;;;4974816;28;20321;-81
2024/01/10 13:28:01;;;;;;;14.97;8.30;;;;;;;;;;4971917;28;20216;-81
2024/01/10 13:30:30;;;;;;;13.30;8.77;;;;;;;;;;4971030;28;20622;-81
2024/01/10 13:32:57;;;;;;;13.83;8.47;;;;;;;;;;4972480;28;20204;-81
2024/01/10 13:35:25;;;;;;;9.83;7.17;;;;;;;;;;4972235;28;20247;-80
2024/01/10 13:37:52;;;;;;;13.70;7.77;;;;;;;;;;4972261;28;20268;-81
2024/01/10 13:40:23;;;;;;;14.80;8.80;;;;;;;;;;4971939;28;20235;-81
2024/01/10 13:42:51;;;;;;;16.03;7.43;;;;;;;;;;4972631;28;20215;-80
2024/01/10 13:45:18;;;;;;;10.10;7.07;;;;;;;;;;4971986;28;20261;-81
2024/01/10 13:47:46;;;;;;;17.10;7.90;;;;;;;;;;4972412;28;20254;-80
2024/01/10 13:50:14;;;;;;;11.13;7.83;;;;;;;;;;4972000;28;20294;-80
2024/01/10 13:52:41;;;;;;;9.77;6.60;;;;;;;;;;4972266;28;20204;-83
2024/01/10 13:55:09;;;;;;;10.57;7.70;;;;;;;;;;4972006;28;20775;-82
2024/01/10 13:57:36;;;;;;;10.23;7.90;;;;;;;;;;4979834;28;20689;-80
2024/01/10 14:00:06;;;;;;;12.43;8.03;;;;;;;;;;4991078;28;20234;-81
2024/01/10 14:02:35;;;;;;;9.90;7.07;;;;;;;;;;4989173;28;20323;-81
2024/01/10 14:05:05;;;;;;;15.13;8.07;;;;;;;;;;4992931;28;20206;-83
2024/01/10 14:07:33;;;;;;;12.37;8.53;;;;;;;;;;4993625;28;20218;-81
2024/01/10 14:10:00;;;;;;;8.67;7.07;;;;;;;;;;4994020;28;21036;-81
2024/01/10 14:12:27;;;;;;;12.33;7.00;;;;;;;;;;4992712;28;20247;-80
2024/01/10 14:14:54;;;;;;;13.57;7.80;;;;;;;;;;4993070;28;20785;-80
2024/01/10 14:17:22;;;;;;;11.83;7.70;;;;;;;;;;4987343;28;20242;-81
2024/01/10 14:19:50;;;;;;;13.13;7.47;;;;;;;;;;4992639;28;20233;-81
2024/01/10 14:22:19;;;;;;;9.83;6.47;;;;;;;;;;4992084;28;20235;-80
2024/01/10 14:24:46;;;;;;;14.33;7.37;;;;;;;;;;4992958;28;20207;-81
2024/01/10 14:27:13;;;;;;;12.90;7.90;;;;;;;;;;4992351;28;20285;-81
2024/01/10 14:29:40;;;;;;;10.10;7.33;;;;;;;;;;4993394;28;20293;-81